Time;durP1;ratioP1;P1;durP2;ratioP2;P2;SDS_P1;SDS_P2;PMS_P1;PMS_P2;Temp;Humidity;BMP_temperature;BMP_pressure;BME280_temperature;BME280_humidity;BME280_pressure;Samples;Min_cycle;Max_cycle;Signal;HPM_P1;HPM_P2
2023/06/06 00:02:01;;;;;;;0.40;0.40;;;;;;;20.91;43.42;101275.28;5188362;28;20029;-84
2023/06/06 00:04:52;;;;;;;5.72;2.33;;;;;;;20.55;46.18;101267.69;5187625;28;20040;-86
2023/06/06 00:07:53;;;;;;;0.30;0.30;;;;;;;20.83;44.94;101266.06;5190793;28;20057;-84
2023/06/06 00:10:44;;;;;;;0.60;0.55;;;;;;;20.73;45.27;101263.94;5189118;28;20029;-84
2023/06/06 00:13:35;;;;;;;1.85;0.52;;;;;;;20.77;44.60;101266.44;5181688;28;20040;-85
2023/06/06 00:17:21;;;;;;;3.88;1.83;;;;;;;20.70;44.79;101266.75;5183693;28;20049;-85
2023/06/06 00:20:36;;;;;;;1.90;0.60;;;;;;;20.43;46.38;101267.50;5177884;28;20052;-84
2023/06/06 00:23:30;;;;;;;0.70;0.70;;;;;;;20.59;46.11;101264.75;5167920;28;20643;-85
2023/06/06 00:26:21;;;;;;;1.60;1.33;;;;;;;20.67;45.70;101269.63;5187570;28;20037;-84
2023/06/06 00:29:13;;;;;;;6.38;1.55;;;;;;;20.45;48.09;101265.59;5174847;28;20343;-83
2023/06/06 00:32:04;;;;;;;1.77;1.27;;;;;;;20.56;46.26;101264.09;5209341;28;20052;-83
2023/06/06 00:34:55;;;;;;;0.70;0.70;;;;;;;20.56;45.24;101264.97;5203344;28;20044;-86
2023/06/06 00:37:50;;;;;;;0.57;0.57;;;;;;;20.56;45.76;101261.44;5182538;28;20113;-85
2023/06/06 00:40:41;;;;;;;0.57;0.45;;;;;;;20.43;46.36;101258.63;5188347;28;20030;-83
2023/06/06 00:43:32;;;;;;;1.05;0.98;;;;;;;20.47;46.78;101268.19;5204846;28;20321;-84
2023/06/06 00:46:24;;;;;;;0.50;0.50;;;;;;;20.18;47.09;101268.09;5191587;28;20052;-82
2023/06/06 00:49:17;;;;;;;1.35;0.52;;;;;;;20.28;46.68;101265.78;5181906;28;20080;-85
2023/06/06 00:52:09;;;;;;;0.73;0.73;;;;;;;19.98;48.74;101263.94;5201843;28;20026;-84
2023/06/06 00:55:01;;;;;;;0.73;0.73;;;;;;;20.12;47.57;101271.97;5188162;28;20088;-83
2023/06/06 00:57:52;;;;;;;1.20;1.10;;;;;;;20.18;47.70;101269.91;5170351;28;20087;-83
2023/06/06 01:00:45;;;;;;;1.27;1.17;;;;;;;20.19;47.13;101271.63;5190957;28;20026;-83
2023/06/06 01:03:36;;;;;;;0.25;0.25;;;;;;;20.20;46.92;101268.88;5181371;28;20102;-84
2023/06/06 01:06:33;;;;;;;0.70;0.70;;;;;;;20.19;47.12;101276.97;5175053;28;20049;-85
2023/06/06 01:09:24;;;;;;;0.75;0.75;;;;;;;20.05;47.58;101265.28;5185148;28;20038;-82
2023/06/06 01:12:40;;;;;;;2.13;1.40;;;;;;;20.04;46.91;101263.56;5171781;28;20057;-84
2023/06/06 01:15:50;;;;;;;0.93;0.93;;;;;;;19.97;47.43;101262.22;5188412;28;20017;-84
2023/06/06 01:18:42;;;;;;;0.77;0.77;;;;;;;20.02;47.62;101265.50;5173688;28;20044;-84
2023/06/06 01:21:44;;;;;;;1.33;1.05;;;;;;;19.87;47.44;101267.22;5215790;28;20092;-84
2023/06/06 01:24:36;;;;;;;0.68;0.68;;;;;;;19.85;48.27;101274.44;5176953;28;20583;-85
2023/06/06 01:27:27;;;;;;;0.95;0.77;;;;;;;19.82;47.60;101263.97;5173601;28;20030;-83
2023/06/06 01:30:25;;;;;;;1.35;0.73;;;;;;;19.84;47.40;101256.72;5170275;28;20356;-84
2023/06/06 01:33:33;;;;;;;0.68;0.60;;;;;;;19.75;48.90;101263.44;5207231;28;20041;-83
2023/06/06 01:36:48;;;;;;;0.70;0.70;;;;;;;19.70;47.67;101264.66;5182014;28;20030;-83
2023/06/06 01:39:43;;;;;;;0.98;0.70;;;;;;;19.70;48.08;101268.19;5177139;28;20100;-84
2023/06/06 01:42:42;;;;;;;2.70;1.70;;;;;;;19.67;49.50;101265.69;5210234;28;20045;-83
2023/06/06 01:45:35;;;;;;;0.40;0.40;;;;;;;19.67;47.89;101265.69;5197960;28;20092;-85
2023/06/06 01:48:27;;;;;;;1.40;1.27;;;;;;;19.64;48.09;101272.03;5195306;28;20029;-83
2023/06/06 01:51:18;;;;;;;4.72;2.13;;;;;;;19.58;47.99;101269.75;5169142;28;20052;-84
2023/06/06 01:54:09;;;;;;;0.88;0.80;;;;;;;19.54;48.40;101272.66;5205300;28;20037;-83
2023/06/06 01:57:00;;;;;;;1.08;1.08;;;;;;;19.47;48.41;101270.31;5177213;28;20033;-84
2023/06/06 01:59:58;;;;;;;3.50;1.05;;;;;;;19.46;48.76;101273.91;5183803;28;20022;-85
2023/06/06 02:02:48;;;;;;;2.28;1.42;;;;;;;19.26;51.08;101266.19;5182686;28;20033;-83
2023/06/06 02:05:39;;;;;;;1.13;1.08;;;;;;;19.26;49.95;101271.53;5193808;28;20021;-84
2023/06/06 02:08:30;;;;;;;0.95;0.95;;;;;;;19.37;48.87;101278.91;5186365;28;20045;-82
2023/06/06 02:11:23;;;;;;;0.93;0.93;;;;;;;19.31;49.33;101278.31;5200143;28;20072;-86
2023/06/06 02:14:15;;;;;;;1.10;1.07;;;;;;;19.27;49.80;101273.25;5175186;28;20029;-82
2023/06/06 02:17:06;;;;;;;0.77;0.77;;;;;;;19.26;49.77;101272.38;5190242;28;20026;-84
2023/06/06 02:19:57;;;;;;;1.25;1.02;;;;;;;19.13;48.81;101274.00;5186407;28;20104;-84
2023/06/06 02:22:48;;;;;;;1.90;1.25;;;;;;;19.17;49.55;101279.06;5165200;28;20041;-84
2023/06/06 02:25:39;;;;;;;0.45;0.45;;;;;;;19.15;49.23;101274.78;5197895;28;20014;-85
2023/06/06 02:28:30;;;;;;;1.55;1.35;;;;;;;19.18;49.50;101286.09;5197644;28;20092;-85
2023/06/06 02:31:21;;;;;;;1.08;0.98;;;;;;;19.13;48.82;101288.13;5185045;28;20097;-83
2023/06/06 02:34:14;;;;;;;0.68;0.68;;;;;;;19.14;49.59;101300.50;5189138;28;20145;-84
2023/06/06 02:37:08;;;;;;;2.95;1.13;;;;;;;19.09;48.79;101285.75;5178411;28;20021;-85
2023/06/06 02:40:08;;;;;;;0.57;0.57;;;;;;;19.01;49.94;101283.50;5203279;28;20033;-84
2023/06/06 02:42:59;;;;;;;0.73;0.73;;;;;;;18.95;49.63;101283.81;5188192;28;20033;-83
2023/06/06 02:45:53;;;;;;;0.63;0.63;;;;;;;18.90;49.57;101275.19;5202982;28;20041;-83
2023/06/06 02:48:48;;;;;;;1.50;1.25;;;;;;;18.85;49.62;101286.06;5176943;28;20036;-83
2023/06/06 02:51:40;;;;;;;4.25;0.75;;;;;;;18.65;53.39;101281.78;5176495;28;20036;-82
2023/06/06 02:54:34;;;;;;;0.82;0.82;;;;;;;18.65;52.33;101285.34;5213846;28;20107;-83
2023/06/06 02:57:25;;;;;;;5.20;1.67;;;;;;;18.69;50.81;101288.69;5198745;28;20992;-83
2023/06/06 03:00:29;;;;;;;2.85;1.60;;;;;;;18.65;50.37;101288.00;5179217;28;20071;-83
2023/06/06 03:03:20;;;;;;;0.70;0.70;;;;;;;18.68;50.34;101289.63;5176845;28;20049;-83
2023/06/06 03:06:12;;;;;;;0.60;0.60;;;;;;;18.58;50.28;101288.38;5203476;28;20049;-83
2023/06/06 03:09:04;;;;;;;0.40;0.40;;;;;;;18.38;53.08;101290.28;5190894;28;20029;-84
2023/06/06 03:11:59;;;;;;;3.03;2.20;;;;;;;18.46;51.70;101290.75;5197597;23;20441;-82
2023/06/06 03:14:50;;;;;;;0.77;0.77;;;;;;;18.13;53.60;101299.47;5173666;28;20113;-81
2023/06/06 03:17:41;;;;;;;5.03;2.13;;;;;;;18.31;51.94;101297.69;5153420;28;20102;-84
2023/06/06 03:20:32;;;;;;;0.70;0.70;;;;;;;18.32;51.64;101298.53;5212004;28;20088;-84
2023/06/06 03:23:25;;;;;;;4.97;1.08;;;;;;;18.24;51.84;101299.78;5172786;28;20134;-84
2023/06/06 03:26:19;;;;;;;1.13;1.08;;;;;;;18.22;52.26;101293.69;5178089;28;20097;-84
2023/06/06 03:29:10;;;;;;;1.50;0.68;;;;;;;18.21;52.40;101296.44;5161171;28;20574;-85
2023/06/06 03:32:01;;;;;;;0.47;0.47;;;;;;;18.19;52.18;101304.47;5186116;28;20581;-83
2023/06/06 03:34:52;;;;;;;2.28;1.23;;;;;;;18.17;52.22;101297.53;5167426;28;20026;-83
2023/06/06 03:37:43;;;;;;;5.30;1.27;;;;;;;17.82;55.41;101292.97;5191740;28;20030;-84
2023/06/06 03:40:37;;;;;;;1.05;1.00;;;;;;;18.00;52.86;101295.69;5151944;28;20030;-85
2023/06/06 03:43:29;;;;;;;0.93;0.93;;;;;;;17.95;53.30;101290.56;5175916;28;20037;-84
2023/06/06 03:46:20;;;;;;;0.70;0.70;;;;;;;18.04;51.78;101291.97;5154099;28;20042;-85
2023/06/06 03:49:11;;;;;;;0.30;0.30;;;;;;;17.99;52.51;101293.97;5181020;28;20037;-85
2023/06/06 03:52:06;;;;;;;1.33;1.02;;;;;;;17.89;52.33;101296.19;5166297;28;20452;-84
2023/06/06 03:54:57;;;;;;;0.85;0.80;;;;;;;17.94;52.43;101308.31;5172147;28;20030;-84
2023/06/06 03:57:47;;;;;;;1.92;1.83;;;;;;;17.94;52.36;101302.13;5194645;28;20105;-84
2023/06/06 04:00:39;;;;;;;1.08;1.08;;;;;;;17.89;52.90;101307.66;5174171;28;20048;-85
2023/06/06 04:03:36;;;;;;;0.90;0.85;;;;;;;17.82;52.13;101303.59;5146918;28;20347;-85
2023/06/06 04:06:27;;;;;;;1.42;1.33;;;;;;;17.83;52.64;101301.81;5147032;28;20038;-83
2023/06/06 04:09:18;;;;;;;0.40;0.40;;;;;;;17.66;53.06;101294.63;5169859;28;20030;-83
2023/06/06 04:12:10;;;;;;;0.68;0.68;;;;;;;17.49;54.01;101295.47;5152411;28;20124;-83
2023/06/06 04:15:01;;;;;;;1.52;1.42;;;;;;;17.43;55.83;101300.13;5158204;28;20080;-84
2023/06/06 04:17:51;;;;;;;0.57;0.57;;;;;;;17.48;53.21;101297.22;5155919;28;20283;-83
2023/06/06 04:20:45;;;;;;;0.73;0.73;;;;;;;17.59;52.83;101302.06;5145432;28;20101;-83
2023/06/06 04:23:36;;;;;;;;;;;;;;;17.57;53.46;101304.75;5142090;28;20064;-84
2023/06/06 04:26:31;;;;;;;1.45;1.35;;;;;;;17.57;53.53;101307.41;5188377;28;20016;-84
2023/06/06 04:29:23;;;;;;;1.25;1.15;;;;;;;17.28;54.47;101307.00;5164998;28;20026;-85
2023/06/06 04:32:21;;;;;;;0.47;0.47;;;;;;;17.08;57.03;101307.91;5175432;28;20209;-80
2023/06/06 04:35:12;;;;;;;1.20;1.15;;;;;;;17.26;55.81;101306.19;5191332;28;20031;-82
2023/06/06 04:38:02;;;;;;;0.77;0.77;;;;;;;17.18;57.09;101311.00;5172819;28;20126;-82
2023/06/06 04:40:53;;;;;;;0.40;0.40;;;;;;;16.97;57.07;101305.75;5168855;28;20079;-83
2023/06/06 04:43:49;;;;;;;1.15;0.90;;;;;;;17.22;54.74;101309.94;5188911;28;20034;-83
2023/06/06 04:46:41;;;;;;;1.05;1.05;;;;;;;17.07;55.62;101314.13;5164269;28;20052;-83
2023/06/06 04:49:38;;;;;;;0.57;0.57;;;;;;;17.08;55.98;101307.91;5186590;28;20083;-83
2023/06/06 04:52:29;;;;;;;1.27;1.02;;;;;;;17.11;55.56;101304.25;5188558;28;20046;-83
2023/06/06 04:55:19;;;;;;;1.25;1.08;;;;;;;17.06;57.26;101303.59;5175886;28;20117;-83
2023/06/06 04:58:14;;;;;;;1.15;1.02;;;;;;;17.10;56.75;101300.75;5146700;28;20054;-83
2023/06/06 05:01:04;;;;;;;0.60;0.60;;;;;;;17.09;56.24;101303.44;5188857;28;20023;-83
2023/06/06 05:03:55;;;;;;;0.45;0.45;;;;;;;17.26;55.16;101310.66;5182262;28;20412;-83
2023/06/06 05:06:46;;;;;;;2.53;1.90;;;;;;;17.25;56.03;101303.63;5124249;28;20066;-81
2023/06/06 05:09:37;;;;;;;3.17;2.42;;;;;;;17.15;55.22;101305.81;5170806;28;20108;-82
2023/06/06 05:12:28;;;;;;;1.08;1.05;;;;;;;16.88;58.65;101297.28;5177236;28;20038;-82
2023/06/06 05:15:18;;;;;;;0.70;0.70;;;;;;;17.00;57.39;101307.38;5156969;28;20455;-82
2023/06/06 05:18:09;;;;;;;1.38;1.30;;;;;;;17.04;56.56;101301.00;5158253;28;20132;-82
2023/06/06 05:21:02;;;;;;;1.77;1.08;;;;;;;17.13;57.85;101313.00;5184595;28;20026;-82
2023/06/06 05:23:54;;;;;;;1.88;1.77;;;;;;;17.06;56.91;101314.22;5162622;28;20065;-83
2023/06/06 05:26:45;;;;;;;0.55;0.55;;;;;;;17.12;56.13;101319.22;5191874;28;20038;-82
2023/06/06 05:29:37;;;;;;;0.68;0.68;;;;;;;16.89;58.21;101317.56;5148304;28;20017;-82
2023/06/06 05:32:28;;;;;;;2.25;1.60;;;;;;;16.80;60.05;101302.94;5171543;28;20044;-82
2023/06/06 05:35:19;;;;;;;0.52;0.52;;;;;;;17.09;56.96;101317.59;5193048;28;20360;-83
2023/06/06 05:38:10;;;;;;;1.58;1.23;;;;;;;17.14;56.23;101312.06;5163762;28;20039;-82
2023/06/06 05:41:00;;;;;;;5.10;2.35;;;;;;;16.92;60.41;101318.28;5207361;28;20030;-82
2023/06/06 05:43:51;;;;;;;0.68;0.68;;;;;;;16.99;56.73;101309.16;5193602;28;20096;-82
2023/06/06 05:46:43;;;;;;;1.30;1.20;;;;;;;17.04;58.53;101311.59;5166581;28;20039;-82
2023/06/06 05:49:36;;;;;;;0.40;0.40;;;;;;;16.88;60.10;101315.84;5175473;28;20036;-82
2023/06/06 05:52:28;;;;;;;3.13;1.60;;;;;;;16.97;59.16;101319.00;5182006;28;20044;-82
2023/06/06 05:55:32;;;;;;;0.65;0.65;;;;;;;17.08;59.83;101322.94;5154525;28;20033;-82
2023/06/06 05:58:23;;;;;;;1.05;1.05;;;;;;;17.11;57.60;101318.34;5163980;28;20045;-83
2023/06/06 06:01:14;;;;;;;8.63;1.75;;;;;;;17.19;57.23;101318.03;5171234;28;20042;-83
2023/06/06 06:04:07;;;;;;;1.40;1.30;;;;;;;16.94;60.88;101321.78;5171257;28;20037;-84
2023/06/06 06:06:58;;;;;;;0.70;0.70;;;;;;;16.89;61.85;101321.09;5172229;28;20129;-86
2023/06/06 06:09:49;;;;;;;1.88;1.75;;;;;;;17.06;59.92;101320.38;5184772;28;20062;-86
2023/06/06 06:12:44;;;;;;;1.20;1.10;;;;;;;17.29;57.01;101316.69;5154905;28;20173;-86
2023/06/06 06:15:35;;;;;;;4.13;1.35;;;;;;;17.25;58.25;101324.84;5179174;28;20014;-84
2023/06/06 06:18:29;;;;;;;1.02;1.02;;;;;;;17.16;58.57;101326.09;5180257;28;20068;-84
2023/06/06 06:21:21;;;;;;;;;;;;;;;17.07;61.34;101322.09;5189366;28;20497;-84
2023/06/06 06:24:12;;;;;;;0.98;0.80;;;;;;;16.96;61.32;101324.34;5149735;28;20295;-84
2023/06/06 06:27:03;;;;;;;1.45;0.80;;;;;;;17.25;58.79;101320.38;5159950;28;20037;-84
2023/06/06 06:29:53;;;;;;;7.85;2.00;;;;;;;17.25;59.90;101320.38;5217703;28;20027;-84
2023/06/06 06:32:45;;;;;;;1.08;1.00;;;;;;;17.20;59.20;101318.88;5155952;28;20042;-84
2023/06/06 06:35:36;;;;;;;2.45;1.58;;;;;;;17.36;57.69;101327.00;5189868;28;20381;-84
2023/06/06 06:38:26;;;;;;;0.70;0.70;;;;;;;17.33;59.57;101332.44;5178572;28;20046;-84
2023/06/06 06:41:17;;;;;;;1.80;1.67;;;;;;;17.38;58.85;101335.75;5189102;28;20038;-84
2023/06/06 06:44:08;;;;;;;1.05;1.05;;;;;;;17.39;58.73;101337.47;5190992;28;20030;-83
2023/06/06 06:46:59;;;;;;;2.35;1.90;;;;;;;17.28;61.07;101345.91;5173242;28;20046;-85
2023/06/06 06:49:50;;;;;;;2.38;1.05;;;;;;;17.37;60.14;101342.81;5188156;28;20030;-85
2023/06/06 06:52:41;;;;;;;1.50;0.77;;;;;;;17.53;58.85;101335.03;5195104;28;20053;-83
2023/06/06 06:55:34;;;;;;;1.20;1.10;;;;;;;17.31;61.03;101351.91;5176235;28;20021;-83
2023/06/06 06:58:25;;;;;;;0.47;0.47;;;;;;;17.41;60.34;101347.06;5182463;28;20045;-83
2023/06/06 07:01:27;;;;;;;1.42;1.33;;;;;;;17.39;60.64;101345.44;5178999;28;20061;-85
2023/06/06 07:04:18;;;;;;;2.58;1.40;;;;;;;17.58;58.28;101342.78;5191827;28;20490;-84
2023/06/06 07:07:08;;;;;;;1.60;1.08;;;;;;;17.50;60.91;101344.94;5192144;28;20201;-84
2023/06/06 07:09:59;;;;;;;1.67;1.58;;;;;;;17.67;58.25;101342.34;5169968;28;20079;-84
2023/06/06 07:12:51;;;;;;;1.02;1.00;;;;;;;17.62;61.38;101345.22;5191673;28;20050;-82
2023/06/06 07:15:42;;;;;;;1.33;1.10;;;;;;;17.64;61.08;101346.94;5175274;28;20029;-83
2023/06/06 07:18:33;;;;;;;0.63;0.63;;;;;;;17.69;60.85;101339.63;5186341;28;20485;-83
2023/06/06 07:21:25;;;;;;;1.67;1.50;;;;;;;17.80;59.41;101339.97;5189228;28;20069;-84
2023/06/06 07:24:16;;;;;;;12.43;2.58;;;;;;;17.80;59.49;101347.94;5176598;28;20038;-83
2023/06/06 07:27:08;;;;;;;6.88;1.60;;;;;;;17.87;59.50;101344.06;5169514;28;20042;-80
2023/06/06 07:30:00;;;;;;;1.85;1.42;;;;;;;17.92;59.25;101342.03;5163321;28;20022;-81
2023/06/06 07:32:51;;;;;;;1.40;1.30;;;;;;;17.72;61.85;101344.78;5182088;28;20038;-81
2023/06/06 07:35:42;;;;;;;1.67;1.58;;;;;;;17.87;60.09;101336.09;5161660;28;20014;-81
2023/06/06 07:38:34;;;;;;;1.73;1.42;;;;;;;18.04;59.24;101345.06;5172168;28;20674;-82
2023/06/06 07:41:29;;;;;;;0.77;0.77;;;;;;;18.05;59.41;101344.16;5171745;28;20129;-83
2023/06/06 07:44:20;;;;;;;3.30;0.90;;;;;;;17.89;60.66;101339.50;5171475;28;20022;-83
2023/06/06 07:47:11;;;;;;;2.35;1.67;;;;;;;17.92;59.64;101336.72;5204528;28;20097;-80
2023/06/06 07:50:02;;;;;;;3.13;1.10;;;;;;;18.03;60.48;101340.69;5191151;28;20054;-77
2023/06/06 07:52:53;;;;;;;1.92;1.83;;;;;;;18.22;58.12;101332.69;5168548;28;20202;-80
2023/06/06 07:55:48;;;;;;;3.40;1.23;;;;;;;18.21;59.03;101336.25;5157055;28;20046;-80
2023/06/06 07:58:53;;;;;;;1.73;1.63;;;;;;;18.02;60.49;101345.13;5152744;28;20043;-78
2023/06/06 08:01:44;;;;;;;1.17;1.10;;;;;;;18.16;59.45;101339.16;5153770;28;20198;-79
2023/06/06 08:04:35;;;;;;;0.82;0.70;;;;;;;18.27;57.79;101335.94;5184599;28;20030;-82
2023/06/06 08:07:26;;;;;;;0.90;0.90;;;;;;;18.17;59.70;101340.88;5173545;28;20038;-80
2023/06/06 08:10:17;;;;;;;1.77;1.33;;;;;;;18.28;58.26;101342.16;5157808;28;20043;-79
2023/06/06 08:13:08;;;;;;;1.13;1.05;;;;;;;18.35;58.87;101349.72;5169856;28;20220;-81
2023/06/06 08:15:58;;;;;;;0.85;0.85;;;;;;;18.33;59.10;101346.28;5180732;28;20052;-82
2023/06/06 08:18:49;;;;;;;1.85;1.75;;;;;;;18.43;58.49;101341.38;5152097;28;20034;-81
2023/06/06 08:21:40;;;;;;;1.20;1.10;;;;;;;18.50;58.04;101342.78;5181213;28;20069;-80
2023/06/06 08:24:30;;;;;;;2.50;1.42;;;;;;;18.52;57.87;101342.69;5160293;28;20046;-79
2023/06/06 08:27:21;;;;;;;1.25;1.15;;;;;;;18.53;58.19;101333.78;5145932;28;20078;-83
2023/06/06 08:30:12;;;;;;;1.00;0.82;;;;;;;18.62;57.52;101345.75;5175515;28;20022;-82
2023/06/06 08:33:03;;;;;;;3.47;2.70;;;;;;;18.49;57.72;101341.06;5175458;28;20049;-82
2023/06/06 08:35:54;;;;;;;1.08;0.95;;;;;;;18.45;59.12;101347.47;5162947;28;20029;-80
2023/06/06 08:38:44;;;;;;;1.95;1.48;;;;;;;18.63;58.51;101336.84;5165115;28;20022;-81
2023/06/06 08:41:37;;;;;;;1.23;1.13;;;;;;;18.71;57.45;101339.97;5182065;28;20481;-80
2023/06/06 08:44:28;;;;;;;1.40;1.33;;;;;;;18.71;57.96;101337.31;5185905;28;20034;-82
2023/06/06 08:47:23;;;;;;;1.88;1.75;;;;;;;18.88;57.84;101337.28;5152767;28;20137;-80
2023/06/06 08:50:16;;;;;;;1.38;1.27;;;;;;;18.80;60.10;101339.47;5159729;28;20374;-81
2023/06/06 08:53:07;;;;;;;0.90;0.85;;;;;;;18.92;57.88;101339.78;5155117;28;20038;-82
2023/06/06 08:55:58;;;;;;;2.13;1.98;;;;;;;19.00;57.42;101340.28;5138889;28;20037;-80
2023/06/06 08:58:51;;;;;;;1.83;0.90;;;;;;;18.96;57.73;101344.91;5153835;28;20026;-82
2023/06/06 09:01:43;;;;;;;0.75;0.75;;;;;;;19.06;56.91;101342.59;5170678;28;20386;-81
2023/06/06 09:04:34;;;;;;;1.80;1.70;;;;;;;19.18;57.82;101330.44;5175754;28;20049;-79
2023/06/06 09:07:26;;;;;;;0.80;0.80;;;;;;;19.18;57.23;101338.41;5159873;28;20065;-81
2023/06/06 09:10:17;;;;;;;1.20;1.10;;;;;;;19.26;56.71;101338.03;5185581;28;20026;-79
2023/06/06 09:13:08;;;;;;;1.55;1.45;;;;;;;19.26;56.81;101341.53;5169467;28;20030;-80
2023/06/06 09:16:00;;;;;;;1.45;1.15;;;;;;;19.28;56.54;101334.34;5180769;28;20615;-79
2023/06/06 09:18:50;;;;;;;1.50;1.40;;;;;;;19.35;56.58;101333.06;5167845;28;20547;-80
2023/06/06 09:21:41;;;;;;;1.08;1.05;;;;;;;19.41;56.37;101333.69;5148485;28;20049;-81
2023/06/06 09:24:32;;;;;;;2.33;1.50;;;;;;;19.45;56.51;101325.44;5206607;23;20444;-79
2023/06/06 09:27:29;;;;;;;1.42;1.33;;;;;;;19.53;56.00;101321.50;5169251;28;20046;-76
2023/06/06 09:30:21;;;;;;;0.80;0.80;;;;;;;19.49;56.77;101326.13;5188431;28;20026;-78
2023/06/06 09:33:14;;;;;;;1.48;1.05;;;;;;;19.57;56.33;101333.69;5189934;28;20363;-80
2023/06/06 09:36:05;;;;;;;3.50;2.35;;;;;;;19.61;55.44;101332.59;5201487;28;20426;-78
2023/06/06 09:39:12;;;;;;;1.58;1.25;;;;;;;19.70;55.75;101326.75;5205702;28;20033;-78
2023/06/06 09:42:06;;;;;;;26.50;2.78;;;;;;;19.75;55.13;101322.00;5178574;28;20084;-78
2023/06/06 09:44:58;;;;;;;1.77;1.30;;;;;;;19.85;54.95;101329.53;5208578;28;20067;-79
2023/06/06 09:47:49;;;;;;;1.02;0.93;;;;;;;19.84;54.44;101320.63;5192986;28;20128;-80
2023/06/06 09:50:41;;;;;;;0.93;0.93;;;;;;;19.93;54.01;101317.47;5218238;28;20029;-79
2023/06/06 09:53:36;;;;;;;10.45;2.33;;;;;;;19.99;53.64;101323.41;5179667;28;20519;-80
2023/06/06 09:56:30;;;;;;;2.15;1.23;;;;;;;20.04;53.38;101308.84;5171009;28;20663;-81
2023/06/06 09:59:25;;;;;;;1.58;1.48;;;;;;;20.08;55.20;101315.75;5175043;28;20037;-78
2023/06/06 10:02:22;;;;;;;3.33;2.38;;;;;;;20.12;54.58;101303.94;5190669;28;20153;-78
2023/06/06 10:05:15;;;;;;;0.90;0.90;;;;;;;20.15;54.82;101305.59;5203369;28;20020;-79
2023/06/06 10:08:09;;;;;;;0.90;0.80;;;;;;;20.21;53.54;101310.56;5189197;28;20061;-79
2023/06/06 10:11:01;;;;;;;1.05;0.98;;;;;;;20.27;53.67;101302.19;5180224;28;20056;-79
2023/06/06 10:13:53;;;;;;;1.45;1.35;;;;;;;20.32;53.96;101304.59;5194174;28;20190;-80
2023/06/06 10:16:44;;;;;;;1.33;1.13;;;;;;;20.42;53.18;101300.44;5199121;28;20419;-79
2023/06/06 10:19:36;;;;;;;0.50;0.50;;;;;;;20.51;53.34;101300.84;5193871;28;20040;-80
2023/06/06 10:22:27;;;;;;;0.90;0.90;;;;;;;20.52;52.74;101295.41;5179260;28;20113;-80
2023/06/06 10:25:18;;;;;;;2.70;1.00;;;;;;;20.63;52.82;101302.75;5170166;28;20024;-79
2023/06/06 10:28:17;;;;;;;0.55;0.55;;;;;;;20.87;52.34;101296.91;5193214;28;20052;-80
2023/06/06 10:31:30;;;;;;;0.75;0.75;;;;;;;20.85;51.36;101290.81;5192604;28;20585;-80
2023/06/06 10:34:26;;;;;;;0.40;0.40;;;;;;;20.94;51.31;101290.25;5192897;28;20040;-81
2023/06/06 10:37:18;;;;;;;0.70;0.70;;;;;;;21.12;50.90;101290.91;5188956;28;20065;-78
2023/06/06 10:40:14;;;;;;;0.47;0.47;;;;;;;21.07;51.18;101285.88;5195739;28;20558;-79
2023/06/06 10:43:05;;;;;;;0.60;0.60;;;;;;;21.17;50.97;101291.47;5179390;28;20148;-79
2023/06/06 10:45:55;;;;;;;0.40;0.40;;;;;;;21.36;50.07;101284.97;5201867;28;20072;-80
2023/06/06 10:48:54;;;;;;;1.48;1.02;;;;;;;21.30;49.96;101280.88;5201623;28;20257;-79
2023/06/06 10:51:46;;;;;;;1.23;0.82;;;;;;;21.46;49.75;101279.91;5200446;28;20262;-80
2023/06/06 10:54:37;;;;;;;0.80;0.57;;;;;;;21.53;48.14;101283.88;5204513;28;20066;-81
2023/06/06 10:57:28;;;;;;;0.90;0.90;;;;;;;21.47;49.97;101277.16;5195155;28;20072;-80
2023/06/06 11:00:24;;;;;;;0.57;0.55;;;;;;;21.65;49.60;101271.59;5183363;28;20072;-80
2023/06/06 11:03:37;;;;;;;3.70;1.42;;;;;;;21.77;50.19;101278.81;5186970;28;20040;-79
2023/06/06 11:06:28;;;;;;;1.42;1.33;;;;;;;21.73;48.62;101276.44;5187720;28;20124;-81
2023/06/06 11:09:29;;;;;;;0.40;0.40;;;;;;;21.84;47.71;101263.25;5196531;28;20052;-78
2023/06/06 11:12:19;;;;;;;0.95;0.95;;;;;;;21.85;48.21;101255.13;5235158;28;20030;-81
2023/06/06 11:15:10;;;;;;;1.30;1.13;;;;;;;21.99;48.13;101264.88;5232126;28;20039;-80
2023/06/06 11:18:05;;;;;;;0.57;0.57;;;;;;;22.03;46.87;101268.22;5235583;28;20013;-81
2023/06/06 11:20:57;;;;;;;2.92;0.73;;;;;;;22.14;47.16;101265.69;5238956;28;20040;-80
2023/06/06 11:23:48;;;;;;;0.45;0.45;;;;;;;22.24;47.36;101260.56;5205766;28;20020;-81
2023/06/06 11:26:41;;;;;;;4.22;2.30;;;;;;;22.33;46.39;101265.28;5211941;28;20115;-80
2023/06/06 11:29:32;;;;;;;8.75;5.05;;;;;;;22.37;46.71;101259.69;5209873;28;20029;-81
2023/06/06 11:32:25;;;;;;;40.17;20.65;;;;;;;22.50;47.00;101252.59;5190267;28;20097;-80
2023/06/06 11:35:21;;;;;;;27.73;11.35;;;;;;;22.69;46.53;101251.28;5206699;28;20526;-80
2023/06/06 11:38:11;;;;;;;4.18;3.17;;;;;;;22.66;46.92;101254.19;5214411;28;20025;-79
2023/06/06 11:41:05;;;;;;;13.15;2.50;;;;;;;22.86;46.97;101252.78;5215528;28;20077;-81
2023/06/06 11:43:56;;;;;;;1.80;1.60;;;;;;;22.77;45.81;101251.59;5218724;28;20483;-81
2023/06/06 11:46:52;;;;;;;1.52;1.42;;;;;;;22.92;45.95;101249.69;5207168;28;20518;-79
2023/06/06 11:49:46;;;;;;;1.45;1.35;;;;;;;23.00;46.01;101252.66;5188827;28;20053;-80
2023/06/06 11:52:48;;;;;;;0.30;0.30;;;;;;;23.19;45.22;101238.00;5203327;28;20028;-81
2023/06/06 11:55:38;;;;;;;1.40;1.10;;;;;;;23.33;45.35;101232.47;5193823;28;20096;-82
2023/06/06 11:58:38;;;;;;;6.20;1.80;;;;;;;23.41;45.62;101231.94;5204085;28;20282;-82
2023/06/06 12:01:29;;;;;;;0.30;0.30;;;;;;;23.52;46.63;101237.34;5182053;28;20033;-79
2023/06/06 12:04:21;;;;;;;1.00;1.00;;;;;;;23.64;45.26;101232.03;5201698;28;20072;-80
2023/06/06 12:07:12;;;;;;;1.55;1.17;;;;;;;23.72;44.20;101226.97;5193879;28;20029;-82
2023/06/06 12:10:03;;;;;;;1.27;1.17;;;;;;;23.79;44.72;101233.56;5209161;28;20041;-82
2023/06/06 12:12:54;;;;;;;1.60;0.93;;;;;;;23.86;44.35;101221.41;5191852;28;20333;-81
2023/06/06 12:15:49;;;;;;;1.17;0.98;;;;;;;23.96;42.21;101218.06;5222958;28;20018;-81
2023/06/06 12:18:47;;;;;;;0.50;0.50;;;;;;;24.03;40.81;101227.34;5198796;28;20029;-82
2023/06/06 12:21:51;;;;;;;1.05;0.95;;;;;;;24.04;40.98;101216.53;5207671;28;20043;-81
2023/06/06 12:24:47;;;;;;;0.50;0.50;;;;;;;24.17;42.03;101213.75;5202781;28;20036;-82
2023/06/06 12:27:38;;;;;;;0.68;0.68;;;;;;;24.27;40.51;101221.06;5208204;28;20631;-82
2023/06/06 12:30:51;;;;;;;0.30;0.30;;;;;;;24.29;41.04;101216.47;5207566;28;20028;-83
2023/06/06 12:33:46;;;;;;;0.22;0.22;;;;;;;24.42;40.07;101214.50;5196096;28;20021;-82
2023/06/06 12:36:37;;;;;;;2.20;1.25;;;;;;;24.64;39.39;101219.06;5185081;28;20511;-84
2023/06/06 12:39:28;;;;;;;1.15;0.98;;;;;;;24.67;39.56;101212.63;5192150;28;20153;-81
2023/06/06 12:42:22;;;;;;;1.33;1.23;;;;;;;24.69;40.17;101210.66;5196816;28;20025;-83
2023/06/06 12:45:19;;;;;;;1.33;1.05;;;;;;;24.96;38.55;101207.59;5188076;28;20044;-82
2023/06/06 12:48:10;;;;;;;0.77;0.77;;;;;;;24.96;37.25;101212.13;5173797;28;20021;-81
2023/06/06 12:51:01;;;;;;;0.65;0.45;;;;;;;25.06;37.61;101204.19;5198111;28;20025;-84
2023/06/06 12:53:52;;;;;;;0.52;0.52;;;;;;;25.14;35.84;101207.97;5201606;28;20079;-82
2023/06/06 12:56:43;;;;;;;0.30;0.30;;;;;;;25.14;35.22;101199.91;5203465;28;20040;-83
2023/06/06 12:59:34;;;;;;;0.30;0.30;;;;;;;25.24;35.40;101199.16;5212145;28;20044;-81
2023/06/06 13:02:25;;;;;;;2.78;1.17;;;;;;;25.41;36.07;101195.94;5196006;28;20064;-81
2023/06/06 13:05:16;;;;;;;0.85;0.85;;;;;;;25.41;34.98;101195.09;5216028;28;20134;-84
2023/06/06 13:08:08;;;;;;;;;;;;;;;25.52;35.16;101202.25;5204816;28;20048;-83
2023/06/06 13:11:00;;;;;;;0.47;0.35;;;;;;;25.49;33.75;101206.06;5209845;28;20418;-83
2023/06/06 13:13:50;;;;;;;3.13;0.47;;;;;;;25.70;32.55;101189.97;5188344;28;20033;-83
2023/06/06 13:16:41;;;;;;;0.30;0.30;;;;;;;25.72;32.42;101204.16;5184534;28;20039;-81
2023/06/06 13:19:32;;;;;;;0.30;0.30;;;;;;;25.77;33.24;101201.91;5207872;28;20041;-82
2023/06/06 13:22:23;;;;;;;0.40;0.40;;;;;;;25.97;34.66;101204.75;5206501;28;20098;-82
2023/06/06 13:25:14;;;;;;;0.60;0.60;;;;;;;26.00;34.26;101195.56;5192220;28;20040;-82
2023/06/06 13:28:04;;;;;;;0.75;0.73;;;;;;;26.02;33.60;101194.44;5191449;28;20032;-81